createdAt,value
2017-09-03T00:00:14.337Z,34.1
2017-09-03T00:01:14.144Z,34.1
2017-09-03T00:02:14.342Z,34.1
2017-09-03T00:03:14.218Z,34.1
2017-09-03T00:04:16.184Z,34.1
2017-09-03T00:05:17.666Z,34.1
2017-09-03T00:06:16.297Z,34.1
2017-09-03T00:07:17.775Z,34.1
2017-09-03T00:08:14.695Z,34.1
2017-09-03T00:09:18.097Z,34.1
2017-09-03T00:10:18.173Z,34.1
2017-09-03T00:11:18.167Z,34.1
2017-09-03T00:12:14.746Z,34.1
2017-09-03T00:13:18.336Z,34.1
2017-09-03T00:14:16.757Z,34.1
2017-09-03T00:15:14.851Z,34.1
2017-09-03T00:16:18.279Z,34.1
2017-09-03T00:17:15.255Z,34.1
2017-09-03T00:18:15.305Z,34.1
2017-09-03T00:19:15.176Z,34.1
2017-09-03T00:20:15.185Z,34.1
2017-09-03T00:21:15.423Z,34.1
2017-09-03T00:22:18.834Z,34.1
2017-09-03T00:23:15.528Z,34.1
2017-09-03T00:24:17.469Z,34.1
2017-09-03T00:25:15.403Z,34.1
2017-09-03T00:26:17.542Z,34.2
2017-09-03T00:27:17.632Z,34.1
2017-09-03T00:28:15.498Z,34.1
2017-09-03T00:29:17.649Z,34.1
2017-09-03T00:30:17.732Z,34.1
2017-09-03T00:31:19.029Z,34.1
2017-09-03T00:32:17.618Z,34.1
2017-09-03T00:33:19.348Z,34.2
2017-09-03T00:34:19.189Z,34.2
2017-09-03T00:35:16.165Z,34.2
2017-09-03T00:36:17.939Z,34.2
2017-09-03T00:37:18.001Z,34.2
2017-09-03T00:38:19.730Z,34.1
2017-09-03T00:39:16.423Z,34.2
2017-09-03T00:40:16.892Z,34.2
2017-09-03T00:41:16.280Z,34.2
2017-09-03T00:42:19.920Z,34.2
2017-09-03T00:43:19.778Z,34.2
2017-09-03T00:44:16.422Z,34.2
2017-09-03T00:45:16.505Z,34.2
2017-09-03T00:46:19.857Z,34.2
2017-09-03T00:47:16.820Z,34.2
2017-09-03T00:48:20.176Z,34.2
2017-09-03T00:49:16.713Z,34.2
2017-09-03T00:50:18.673Z,34.2
2017-09-03T00:51:16.828Z,34.2
2017-09-03T00:52:20.247Z,34.2
2017-09-03T00:53:20.297Z,34.2
2017-09-03T00:54:19.766Z,34.2
2017-09-03T00:55:20.659Z,34.2
2017-09-03T00:56:17.141Z,34.2
2017-09-03T00:57:19.089Z,34.2
2017-09-03T00:58:19.358Z,34.2
2017-09-03T00:59:17.862Z,34.2
2017-09-03T01:00:17.574Z,34.2
2017-09-03T01:01:17.418Z,34.2
2017-09-03T01:02:17.649Z,34.2
2017-09-03T01:03:19.643Z,34.2
2017-09-03T01:04:20.878Z,34.2
2017-09-03T01:05:17.571Z,34.2
2017-09-03T01:06:19.767Z,34.2
2017-09-03T01:07:19.775Z,34.2
2017-09-03T01:08:17.662Z,34.2
2017-09-03T01:09:17.699Z,34.2
2017-09-03T01:10:17.747Z,34.2
2017-09-03T01:11:18.029Z,34.2
2017-09-03T01:12:21.205Z,34.2
2017-09-03T01:13:20.052Z,34.2
2017-09-03T01:14:19.940Z,34.2
2017-09-03T01:15:20.030Z,34.2
2017-09-03T01:16:22.346Z,34.2
2017-09-03T01:17:18.436Z,34.2
2017-09-03T01:18:21.823Z,34.2
2017-09-03T01:19:18.525Z,34.2
2017-09-03T01:20:18.321Z,34.2
2017-09-03T01:21:20.521Z,34.2
2017-09-03T01:22:20.582Z,34.2
2017-09-03T01:23:18.784Z,34.2
2017-09-03T01:24:22.184Z,34.2
2017-09-03T01:25:19.412Z,34.2
2017-09-03T01:26:22.261Z,34.2
2017-09-03T01:27:18.802Z,34.2
2017-09-03T01:28:19.632Z,34.2
2017-09-03T01:29:18.982Z,34.2
2017-09-03T01:30:18.852Z,34.2
2017-09-03T01:31:19.181Z,34.2
2017-09-03T01:32:19.249Z,34.2
2017-09-03T01:33:19.264Z,34.2
2017-09-03T01:34:22.438Z,34.2
2017-09-03T01:35:19.377Z,34.2
2017-09-03T01:36:19.283Z,34.2
2017-09-03T01:37:21.245Z,34.2
2017-09-03T01:38:24.688Z,34.2
2017-09-03T01:39:21.258Z,34.2
2017-09-03T01:40:21.306Z,34.2
2017-09-03T01:41:21.624Z,34.2
2017-09-03T01:42:19.746Z,34.2
2017-09-03T01:43:19.599Z,34.2
2017-09-03T01:44:19.785Z,34.2
2017-09-03T01:45:19.631Z,34.2
2017-09-03T01:46:19.652Z,34.2
2017-09-03T01:47:19.897Z,34.2
2017-09-03T01:48:19.795Z,34.2
2017-09-03T01:49:20.036Z,34.2
2017-09-03T01:50:19.897Z,34.2
2017-09-03T01:51:21.811Z,34.2
2017-09-03T01:52:20.213Z,34.2
2017-09-03T01:53:22.216Z,34.2
2017-09-03T01:54:20.154Z,34.2
2017-09-03T01:55:22.299Z,34.2
2017-09-03T01:56:20.405Z,34.2
2017-09-03T01:57:22.169Z,34.3
2017-09-03T01:58:23.800Z,34.2
2017-09-03T01:59:22.203Z,34.2
2017-09-03T02:00:20.554Z,34.2
2017-09-03T02:01:22.569Z,34.2
2017-09-03T02:02:24.070Z,34.2
2017-09-03T02:03:20.463Z,34.2
2017-09-03T02:04:24.012Z,34.2
2017-09-03T02:05:24.167Z,34.2
2017-09-03T02:06:21.809Z,34.2
2017-09-03T02:07:24.178Z,34.2
2017-09-03T02:08:24.333Z,34.2
2017-09-03T02:09:25.168Z,34.2
2017-09-03T02:10:20.962Z,34.2
2017-09-03T02:11:22.991Z,34.2
2017-09-03T02:12:21.129Z,34.2
2017-09-03T02:13:24.588Z,34.2
2017-09-03T02:14:24.376Z,34.2
2017-09-03T02:15:23.078Z,34.2
2017-09-03T02:16:21.295Z,34.2
2017-09-03T02:17:24.784Z,34.2
2017-09-03T02:18:23.145Z,34.2
2017-09-03T02:19:21.324Z,34.2
2017-09-03T02:20:25.625Z,34.2
2017-09-03T02:21:21.442Z,34.2
2017-09-03T02:22:22.303Z,34.2
2017-09-03T02:23:21.469Z,34.2
2017-09-03T02:24:21.532Z,34.2
2017-09-03T02:25:21.733Z,34.2
2017-09-03T02:26:24.977Z,34.2
2017-09-03T02:27:21.704Z,34.2
2017-09-03T02:28:23.863Z,34.2
2017-09-03T02:29:21.953Z,34.2
2017-09-03T02:30:24.081Z,34.2
2017-09-03T02:31:23.735Z,34.2
2017-09-03T02:32:22.081Z,34.2
2017-09-03T02:33:21.989Z,34.3
2017-09-03T02:34:23.880Z,34.3
2017-09-03T02:35:22.042Z,34.3
2017-09-03T02:36:25.649Z,34.3
2017-09-03T02:37:22.350Z,34.3
2017-09-03T02:38:25.782Z,34.3
2017-09-03T02:39:22.317Z,34.2
2017-09-03T02:40:25.717Z,34.2
2017-09-03T02:41:26.012Z,34.3
2017-09-03T02:42:22.448Z,34.2
2017-09-03T02:43:25.850Z,34.2
2017-09-03T02:44:22.794Z,34.2
2017-09-03T02:45:24.483Z,34.2
2017-09-03T02:46:22.615Z,34.2
2017-09-03T02:47:22.662Z,34.2
2017-09-03T02:48:26.035Z,34.2
2017-09-03T02:49:22.759Z,34.2
2017-09-03T02:50:23.019Z,34.2
2017-09-03T02:51:22.809Z,34.2
2017-09-03T02:52:23.094Z,34.2
2017-09-03T02:53:26.313Z,34.2
2017-09-03T02:54:22.989Z,34.2
2017-09-03T02:55:22.972Z,34.2
2017-09-03T02:56:24.998Z,34.2
2017-09-03T02:57:26.682Z,34.2
2017-09-03T02:58:23.432Z,34.2
2017-09-03T02:59:23.413Z,34.2
2017-09-03T03:00:26.609Z,34.2
2017-09-03T03:01:25.462Z,34.2
2017-09-03T03:02:23.419Z,34.2
2017-09-03T03:03:25.627Z,34.2
2017-09-03T03:04:27.123Z,34.2
2017-09-03T03:05:25.484Z,34.2
2017-09-03T03:06:25.515Z,34.2
2017-09-03T03:07:25.918Z,34.2
2017-09-03T03:08:24.717Z,34.2
2017-09-03T03:09:27.433Z,34.2
2017-09-03T03:10:25.975Z,34.2
2017-09-03T03:11:28.478Z,34.2
2017-09-03T03:12:24.848Z,34.2
2017-09-03T03:13:27.385Z,34.2
2017-09-03T03:14:27.605Z,34.2
2017-09-03T03:15:24.297Z,34.2
2017-09-03T03:16:26.031Z,34.3
2017-09-03T03:17:26.339Z,34.3
2017-09-03T03:18:27.810Z,34.3
2017-09-03T03:19:26.252Z,34.3
2017-09-03T03:20:24.645Z,34.3
2017-09-03T03:21:24.732Z,34.2
2017-09-03T03:22:24.751Z,34.2
2017-09-03T03:23:27.867Z,34.2
2017-09-03T03:24:27.913Z,34.2
2017-09-03T03:25:24.842Z,34.2
2017-09-03T03:26:28.273Z,34.2
2017-09-03T03:27:28.247Z,34.2
2017-09-03T03:28:24.824Z,34.2
2017-09-03T03:29:28.360Z,34.2
2017-09-03T03:30:25.063Z,34.2
2017-09-03T03:31:25.108Z,34.2
2017-09-03T03:32:24.991Z,34.2
2017-09-03T03:33:25.054Z,34.2
2017-09-03T03:34:25.036Z,34.2
2017-09-03T03:35:26.102Z,34.2
2017-09-03T03:36:27.049Z,34.2
2017-09-03T03:37:25.208Z,34.2
2017-09-03T03:38:25.464Z,34.2
2017-09-03T03:39:25.330Z,34.2
2017-09-03T03:40:25.363Z,34.2
2017-09-03T03:41:25.420Z,34.2
2017-09-03T03:42:27.349Z,34.2
2017-09-03T03:43:28.819Z,34.2
2017-09-03T03:44:25.567Z,34.2
2017-09-03T03:45:27.737Z,34.2
2017-09-03T03:46:28.992Z,34.2
2017-09-03T03:47:29.272Z,34.2
2017-09-03T03:48:26.669Z,34.2
2017-09-03T03:49:26.583Z,34.2
2017-09-03T03:50:29.357Z,34.2
2017-09-03T03:51:26.095Z,34.2
2017-09-03T03:52:29.522Z,34.2
2017-09-03T03:53:26.075Z,34.2
2017-09-03T03:54:26.137Z,34.2
2017-09-03T03:55:26.146Z,34.2
2017-09-03T03:56:29.498Z,34.2
2017-09-03T03:57:29.751Z,34.2
2017-09-03T03:58:26.263Z,34.2
2017-09-03T03:59:26.397Z,34.2
2017-09-03T04:00:29.041Z,34.2
2017-09-03T04:01:26.682Z,34.2
2017-09-03T04:02:30.127Z,34.2
2017-09-03T04:03:26.823Z,34.2
2017-09-03T04:04:26.870Z,34.2
2017-09-03T04:05:26.730Z,34.2
2017-09-03T04:06:28.704Z,34.2
2017-09-03T04:07:26.832Z,34.2
2017-09-03T04:08:27.093Z,34.2
2017-09-03T04:09:30.308Z,34.2
2017-09-03T04:10:29.133Z,34.2
2017-09-03T04:11:30.345Z,34.2
2017-09-03T04:12:27.283Z,34.2
2017-09-03T04:13:29.066Z,34.2
2017-09-03T04:14:29.143Z,34.2
2017-09-03T04:15:29.229Z,34.2
2017-09-03T04:16:30.703Z,34.2
2017-09-03T04:17:27.634Z,34.2
2017-09-03T04:18:30.776Z,34.2
2017-09-03T04:19:29.404Z,34.2
2017-09-03T04:20:27.802Z,34.2
2017-09-03T04:21:29.698Z,34.2
2017-09-03T04:22:29.750Z,34.1
2017-09-03T04:23:27.910Z,34.1
2017-09-03T04:24:31.053Z,34.2
2017-09-03T04:25:31.088Z,34.2
2017-09-03T04:26:28.063Z,34.2
2017-09-03T04:27:29.845Z,34.2
2017-09-03T04:28:28.189Z,34.2
2017-09-03T04:29:30.234Z,34.2
2017-09-03T04:30:31.639Z,34.2
2017-09-03T04:31:30.098Z,34.2
2017-09-03T04:32:30.374Z,34.2
2017-09-03T04:33:30.259Z,34.1
2017-09-03T04:34:31.918Z,34.1
2017-09-03T04:35:28.632Z,34.2
2017-09-03T04:36:30.636Z,34.2
2017-09-03T04:37:31.931Z,34.2
2017-09-03T04:38:28.851Z,34.2
2017-09-03T04:39:32.047Z,34.2
2017-09-03T04:40:32.296Z,34.2
2017-09-03T04:41:28.994Z,34.2
2017-09-03T04:42:32.318Z,34.2
2017-09-03T04:43:28.812Z,34.2
2017-09-03T04:44:32.435Z,34.1
2017-09-03T04:45:32.309Z,34.1
2017-09-03T04:46:29.014Z,34.1
2017-09-03T04:47:29.107Z,34.2
2017-09-03T04:48:31.270Z,34.1
2017-09-03T04:49:29.206Z,34.2
2017-09-03T04:50:29.263Z,34.1
2017-09-03T04:51:31.244Z,34.1
2017-09-03T04:52:32.685Z,34.1
2017-09-03T04:53:31.352Z,34.1
2017-09-03T04:54:31.391Z,34.1
2017-09-03T04:55:31.681Z,34.1
2017-09-03T04:56:33.167Z,34.1
2017-09-03T04:57:29.722Z,34.1
2017-09-03T04:58:29.823Z,34.1
2017-09-03T04:59:33.205Z,34.1
2017-09-03T05:00:29.968Z,34.1
2017-09-03T05:01:33.590Z,34.1
2017-09-03T05:02:32.007Z,34.1
2017-09-03T05:03:33.443Z,34.1
2017-09-03T05:04:30.104Z,34.1
2017-09-03T05:05:32.296Z,34.1
2017-09-03T05:06:30.485Z,34.1
2017-09-03T05:07:30.367Z,34.1
2017-09-03T05:08:30.638Z,34.1
2017-09-03T05:09:33.783Z,34.1
2017-09-03T05:10:33.816Z,34
2017-09-03T05:11:32.454Z,34
2017-09-03T05:12:32.505Z,34.1
2017-09-03T05:13:32.551Z,34
2017-09-03T05:14:30.984Z,34.1
2017-09-03T05:15:32.668Z,34.1
2017-09-03T05:16:34.125Z,34.1
2017-09-03T05:17:30.889Z,34
2017-09-03T05:18:33.087Z,34.1
2017-09-03T05:19:31.053Z,34.1
2017-09-03T05:20:31.377Z,34
2017-09-03T05:21:34.707Z,34.1
2017-09-03T05:22:34.721Z,34
2017-09-03T05:23:31.286Z,34
2017-09-03T05:24:34.863Z,34
2017-09-03T05:25:31.427Z,34
2017-09-03T05:26:33.414Z,34
2017-09-03T05:27:31.734Z,34
2017-09-03T05:28:31.589Z,34
2017-09-03T05:29:33.788Z,34
2017-09-03T05:30:31.742Z,34
2017-09-03T05:31:31.976Z,34
2017-09-03T05:32:32.074Z,34
2017-09-03T05:33:31.933Z,34
2017-09-03T05:34:32.177Z,34
2017-09-03T05:35:34.170Z,34
2017-09-03T05:36:32.260Z,34
2017-09-03T05:37:33.990Z,34
2017-09-03T05:38:34.285Z,34
2017-09-03T05:39:32.457Z,34
2017-09-03T05:40:35.677Z,33.9
2017-09-03T05:41:32.610Z,33.9
2017-09-03T05:42:32.514Z,33.9
2017-09-03T05:43:34.665Z,33.9
2017-09-03T05:44:32.596Z,33.9
2017-09-03T05:45:34.556Z,33.9
2017-09-03T05:46:32.682Z,33.9
2017-09-03T05:47:32.716Z,33.9
2017-09-03T05:48:34.944Z,33.9
2017-09-03T05:49:32.989Z,33.9
2017-09-03T05:50:32.882Z,33.9
2017-09-03T05:51:36.220Z,33.9
2017-09-03T05:52:34.882Z,33.8
2017-09-03T05:53:33.237Z,33.8
2017-09-03T05:54:35.144Z,33.8
2017-09-03T05:55:33.247Z,33.8
2017-09-03T05:56:36.421Z,33.8
2017-09-03T05:57:35.318Z,33.8
2017-09-03T05:58:33.440Z,33.8
2017-09-03T05:59:33.249Z,33.8
2017-09-03T06:00:33.565Z,33.8
2017-09-03T06:01:35.882Z,33.8
2017-09-03T06:02:33.503Z,33.7
2017-09-03T06:03:36.780Z,33.7
2017-09-03T06:04:33.465Z,33.7
2017-09-03T06:05:33.537Z,33.7
2017-09-03T06:06:36.942Z,33.7
2017-09-03T06:07:37.255Z,33.7
2017-09-03T06:08:37.222Z,33.7
2017-09-03T06:09:33.691Z,33.7
2017-09-03T06:10:37.091Z,33.7
2017-09-03T06:11:35.717Z,33.7
2017-09-03T06:12:34.092Z,33.6
2017-09-03T06:13:34.431Z,33.6
2017-09-03T06:14:36.131Z,33.6
2017-09-03T06:15:34.095Z,33.6
2017-09-03T06:16:35.994Z,33.6
2017-09-03T06:17:34.142Z,33.6
2017-09-03T06:18:34.216Z,33.6
2017-09-03T06:19:34.542Z,33.6
2017-09-03T06:20:34.530Z,33.5
2017-09-03T06:21:34.539Z,33.5
2017-09-03T06:22:34.595Z,33.5
2017-09-03T06:23:34.407Z,33.5
2017-09-03T06:24:34.672Z,33.5
2017-09-03T06:25:34.807Z,33.5
2017-09-03T06:26:38.162Z,33.5
2017-09-03T06:27:38.008Z,33.5
2017-09-03T06:28:38.049Z,33.5
2017-09-03T06:29:34.795Z,33.4
2017-09-03T06:30:38.341Z,33.4
2017-09-03T06:31:38.804Z,33.4
2017-09-03T06:32:38.416Z,33.4
2017-09-03T06:33:38.264Z,33.4
2017-09-03T06:34:38.297Z,33.4
2017-09-03T06:35:36.940Z,33.4
2017-09-03T06:36:38.469Z,33.4
2017-09-03T06:37:35.669Z,33.4
2017-09-03T06:38:35.408Z,33.4
2017-09-03T06:39:38.859Z,33.4
2017-09-03T06:40:35.328Z,33.3
2017-09-03T06:41:37.301Z,33.3
2017-09-03T06:42:35.481Z,33.3
2017-09-03T06:43:35.785Z,33.3
2017-09-03T06:44:35.776Z,33.3
2017-09-03T06:45:37.820Z,33.3
2017-09-03T06:46:35.685Z,33.2
2017-09-03T06:47:35.729Z,33.2
2017-09-03T06:48:36.015Z,33.2
2017-09-03T06:49:36.532Z,33.2
2017-09-03T06:50:37.802Z,33.2
2017-09-03T06:51:39.273Z,33.2
2017-09-03T06:52:36.247Z,33.2
2017-09-03T06:53:36.264Z,33.1
2017-09-03T06:54:37.996Z,33.1
2017-09-03T06:55:38.596Z,33.1
2017-09-03T06:56:38.385Z,33.1
2017-09-03T06:57:38.275Z,33.1
2017-09-03T06:58:39.919Z,33.1
2017-09-03T06:59:36.690Z,33.1
2017-09-03T07:00:38.429Z,33.1
2017-09-03T07:01:38.696Z,33
2017-09-03T07:02:38.684Z,33
2017-09-03T07:03:36.880Z,33
2017-09-03T07:04:36.857Z,33
2017-09-03T07:05:36.917Z,33
2017-09-03T07:06:40.056Z,33
2017-09-03T07:07:40.471Z,33
2017-09-03T07:08:38.944Z,33
2017-09-03T07:09:40.198Z,33
2017-09-03T07:10:36.941Z,33
2017-09-03T07:11:39.146Z,33
2017-09-03T07:12:37.278Z,32.9
2017-09-03T07:13:37.581Z,32.9
2017-09-03T07:14:40.459Z,32.9
2017-09-03T07:15:37.351Z,32.9
2017-09-03T07:16:37.166Z,32.9
2017-09-03T07:17:39.360Z,32.9
2017-09-03T07:18:37.321Z,32.8
2017-09-03T07:19:39.778Z,32.8
2017-09-03T07:20:39.307Z,32.8
2017-09-03T07:21:39.554Z,32.8
2017-09-03T07:22:39.637Z,32.8
2017-09-03T07:23:40.906Z,32.7
2017-09-03T07:24:37.824Z,32.7
2017-09-03T07:25:41.325Z,32.7
2017-09-03T07:26:41.272Z,32.7
2017-09-03T07:27:38.005Z,32.7
2017-09-03T07:28:37.914Z,32.7
2017-09-03T07:29:37.930Z,32.7
2017-09-03T07:30:41.461Z,32.7
2017-09-03T07:31:38.514Z,32.7
2017-09-03T07:32:38.297Z,32.6
2017-09-03T07:33:38.322Z,32.6
2017-09-03T07:34:41.798Z,32.6
2017-09-03T07:35:40.375Z,32.6
2017-09-03T07:36:40.436Z,32.6
2017-09-03T07:37:38.560Z,32.6
2017-09-03T07:38:40.270Z,32.6
2017-09-03T07:39:40.333Z,32.5
2017-09-03T07:40:38.502Z,32.5
2017-09-03T07:41:42.048Z,32.5
2017-09-03T07:42:38.601Z,32.5
2017-09-03T07:43:41.065Z,32.5
2017-09-03T07:44:38.720Z,32.5
2017-09-03T07:45:40.899Z,32.4
2017-09-03T07:46:42.381Z,32.4
2017-09-03T07:47:42.252Z,32.4
2017-09-03T07:48:38.973Z,32.4
2017-09-03T07:49:42.611Z,32.4
2017-09-03T07:50:39.024Z,32.4
2017-09-03T07:51:41.208Z,32.4
2017-09-03T07:52:42.486Z,32.3
2017-09-03T07:53:39.410Z,32.3
2017-09-03T07:54:42.624Z,32.3
2017-09-03T07:55:39.821Z,32.3
2017-09-03T07:56:39.343Z,32.3
2017-09-03T07:57:42.921Z,32.3
2017-09-03T07:58:39.685Z,32.3
2017-09-03T07:59:39.741Z,32.3
2017-09-03T08:00:41.724Z,32.3
2017-09-03T08:01:43.479Z,32.3
2017-09-03T08:02:43.031Z,32.3
2017-09-03T08:03:43.072Z,32.3
2017-09-03T08:04:39.978Z,32.3
2017-09-03T08:05:43.359Z,32.3
2017-09-03T08:06:40.064Z,32.3
2017-09-03T08:07:43.683Z,32.3
2017-09-03T08:08:40.126Z,32.3
2017-09-03T08:09:41.932Z,32.3
2017-09-03T08:10:42.232Z,32.3
2017-09-03T08:11:40.366Z,32.3
2017-09-03T08:12:43.782Z,32.3
2017-09-03T08:13:40.611Z,32.3
2017-09-03T08:14:40.534Z,32.3
2017-09-03T08:15:40.594Z,32.3
2017-09-03T08:16:43.926Z,32.4
2017-09-03T08:17:40.679Z,32.4
2017-09-03T08:18:44.094Z,32.4
2017-09-03T08:19:42.794Z,32.4
2017-09-03T08:20:40.668Z,32.4
2017-09-03T08:21:44.103Z,32.4
2017-09-03T08:22:44.270Z,32.4
2017-09-03T08:23:42.631Z,32.4
2017-09-03T08:24:41.033Z,32.4
2017-09-03T08:25:41.178Z,32.4
2017-09-03T08:26:40.950Z,32.3
2017-09-03T08:27:44.307Z,32.3
2017-09-03T08:28:42.941Z,32.3
2017-09-03T08:29:41.344Z,32.3
2017-09-03T08:30:41.224Z,32.2
2017-09-03T08:31:43.637Z,32.2
2017-09-03T08:32:43.410Z,32.2
2017-09-03T08:33:41.312Z,32.1
2017-09-03T08:34:41.547Z,32.1
2017-09-03T08:35:41.633Z,32.1
2017-09-03T08:36:41.536Z,32.1
2017-09-03T08:37:45.338Z,32.1
2017-09-03T08:38:44.892Z,32.2
2017-09-03T08:39:41.861Z,32.2
2017-09-03T08:40:43.628Z,32.2
2017-09-03T08:41:41.804Z,32.2
2017-09-03T08:42:43.946Z,32.2
2017-09-03T08:43:45.771Z,32.2
2017-09-03T08:44:44.038Z,32.2
2017-09-03T08:45:41.996Z,32.2
2017-09-03T08:46:44.225Z,32.2
2017-09-03T08:47:44.041Z,32.2
2017-09-03T08:48:42.147Z,32.2
2017-09-03T08:49:42.525Z,32.3
2017-09-03T08:50:42.521Z,32.3
2017-09-03T08:51:45.934Z,32.3
2017-09-03T08:52:44.591Z,32.3
2017-09-03T08:53:42.486Z,32.3
2017-09-03T08:54:42.781Z,32.3
2017-09-03T08:55:43.116Z,32.3
2017-09-03T08:56:42.866Z,32.3
2017-09-03T08:57:45.980Z,32.3
2017-09-03T08:58:44.600Z,32.3
2017-09-03T08:59:42.926Z,32.3
2017-09-03T09:00:46.103Z,32.3
2017-09-03T09:01:43.574Z,32.3
2017-09-03T09:02:46.202Z,32.3
2017-09-03T09:03:46.524Z,32.3
2017-09-03T09:04:42.933Z,32.3
2017-09-03T09:05:43.322Z,32.3
2017-09-03T09:06:46.689Z,32.3
2017-09-03T09:07:43.607Z,32.3
2017-09-03T09:08:43.175Z,32.3
2017-09-03T09:09:43.426Z,32.3
2017-09-03T09:10:43.313Z,32.3
2017-09-03T09:11:46.708Z,32.3
2017-09-03T09:12:43.612Z,32.4
2017-09-03T09:13:43.999Z,32.4
2017-09-03T09:14:43.575Z,32.4
2017-09-03T09:15:47.191Z,32.4
2017-09-03T09:16:43.712Z,32.4
2017-09-03T09:17:45.722Z,32.4
2017-09-03T09:18:45.713Z,32.4
2017-09-03T09:19:45.981Z,32.4
2017-09-03T09:20:47.167Z,32.4
2017-09-03T09:21:43.808Z,32.4
2017-09-03T09:22:47.363Z,32.4
2017-09-03T09:23:46.034Z,32.4
2017-09-03T09:24:46.061Z,32.4
2017-09-03T09:25:46.399Z,32.4
2017-09-03T09:26:46.178Z,32.4
2017-09-03T09:27:47.679Z,32.4
2017-09-03T09:28:46.251Z,32.4
2017-09-03T09:29:44.204Z,32.4
2017-09-03T09:30:47.790Z,32.4
2017-09-03T09:31:44.625Z,32.4
2017-09-03T09:32:44.492Z,32.4
2017-09-03T09:33:44.524Z,32.4
2017-09-03T09:34:46.437Z,32.4
2017-09-03T09:35:44.782Z,32.4
2017-09-03T09:36:44.628Z,32.4
2017-09-03T09:37:45.194Z,32.4
2017-09-03T09:38:48.313Z,32.4
2017-09-03T09:39:45.056Z,32.4
2017-09-03T09:40:48.199Z,32.4
2017-09-03T09:41:48.205Z,32.4
2017-09-03T09:42:44.910Z,32.4
2017-09-03T09:43:47.177Z,32.4
2017-09-03T09:44:45.226Z,32.5
2017-09-03T09:45:48.437Z,32.5
2017-09-03T09:46:45.418Z,32.5
2017-09-03T09:47:47.153Z,32.5
2017-09-03T09:48:48.659Z,32.5
2017-09-03T09:49:45.884Z,32.5
2017-09-03T09:50:45.692Z,32.5
2017-09-03T09:51:47.694Z,32.5
2017-09-03T09:52:47.715Z,32.5
2017-09-03T09:53:45.794Z,32.5
2017-09-03T09:54:45.676Z,32.5
2017-09-03T09:55:48.040Z,32.5
2017-09-03T09:56:45.987Z,32.5
2017-09-03T09:57:47.710Z,32.5
2017-09-03T09:58:45.855Z,32.5
2017-09-03T09:59:47.955Z,32.5
2017-09-03T10:00:46.109Z,32.5
2017-09-03T10:01:49.768Z,32.5
2017-09-03T10:02:46.201Z,32.5
2017-09-03T10:03:46.320Z,32.5
2017-09-03T10:04:49.681Z,32.5
2017-09-03T10:05:46.403Z,32.5
2017-09-03T10:06:46.271Z,32.5
2017-09-03T10:07:50.070Z,32.5
2017-09-03T10:08:46.299Z,32.5
2017-09-03T10:09:46.375Z,32.5
2017-09-03T10:10:46.420Z,32.5
2017-09-03T10:11:48.613Z,32.5
2017-09-03T10:12:48.695Z,32.5
2017-09-03T10:13:46.823Z,32.5
2017-09-03T10:14:46.630Z,32.5
2017-09-03T10:15:48.805Z,32.5
2017-09-03T10:16:46.727Z,32.5
2017-09-03T10:17:48.909Z,32.5
2017-09-03T10:18:46.864Z,32.5
2017-09-03T10:19:47.332Z,32.5
2017-09-03T10:20:47.124Z,32.5
2017-09-03T10:21:47.146Z,32.5
2017-09-03T10:22:47.261Z,32.5
2017-09-03T10:23:50.645Z,32.5
2017-09-03T10:24:47.315Z,32.5
2017-09-03T10:25:47.466Z,32.5
2017-09-03T10:26:47.420Z,32.5
2017-09-03T10:27:50.777Z,32.5
2017-09-03T10:28:50.816Z,32.5
2017-09-03T10:29:47.450Z,32.5
2017-09-03T10:30:49.230Z,32.6
2017-09-03T10:31:51.177Z,32.6
2017-09-03T10:32:50.799Z,32.6
2017-09-03T10:33:50.806Z,32.6
2017-09-03T10:34:47.538Z,32.6
2017-09-03T10:35:47.560Z,32.6
2017-09-03T10:36:47.612Z,32.6
2017-09-03T10:37:47.940Z,32.6
2017-09-03T10:38:49.858Z,32.6
2017-09-03T10:39:48.020Z,32.6
2017-09-03T10:40:51.188Z,32.6
2017-09-03T10:41:51.465Z,32.6
2017-09-03T10:42:48.143Z,32.6
2017-09-03T10:43:48.399Z,32.6
2017-09-03T10:44:51.504Z,32.6
2017-09-03T10:45:51.559Z,32.6
2017-09-03T10:46:48.109Z,32.6
2017-09-03T10:47:48.146Z,32.6
2017-09-03T10:48:51.550Z,32.6
2017-09-03T10:49:51.942Z,32.6
2017-09-03T10:50:50.258Z,32.6
2017-09-03T10:51:48.347Z,32.6
2017-09-03T10:52:48.622Z,32.6
2017-09-03T10:53:51.805Z,32.6
2017-09-03T10:54:50.449Z,32.6
2017-09-03T10:55:49.091Z,32.6
2017-09-03T10:56:51.987Z,32.6
2017-09-03T10:57:48.932Z,32.6
2017-09-03T10:58:48.782Z,32.6
2017-09-03T10:59:52.171Z,32.6
2017-09-03T11:00:49.094Z,32.6
2017-09-03T11:01:52.725Z,32.6
2017-09-03T11:02:52.356Z,32.6
2017-09-03T11:03:52.423Z,32.6
2017-09-03T11:04:49.214Z,32.6
2017-09-03T11:05:49.478Z,32.6
2017-09-03T11:06:49.543Z,32.6
2017-09-03T11:07:52.982Z,32.6
2017-09-03T11:08:49.610Z,32.6
2017-09-03T11:09:52.982Z,32.6
2017-09-03T11:10:53.038Z,32.6
2017-09-03T11:11:49.616Z,32.6
2017-09-03T11:12:52.982Z,32.6
2017-09-03T11:13:49.978Z,32.6
2017-09-03T11:14:49.917Z,32.6
2017-09-03T11:15:53.332Z,32.6
2017-09-03T11:16:52.016Z,32.6
2017-09-03T11:17:52.095Z,32.6
2017-09-03T11:18:52.172Z,32.6
2017-09-03T11:19:52.517Z,32.6
2017-09-03T11:20:53.483Z,32.6
2017-09-03T11:21:52.102Z,32.6
2017-09-03T11:22:50.494Z,32.6
2017-09-03T11:23:53.841Z,32.6
2017-09-03T11:24:50.628Z,32.6
2017-09-03T11:25:50.893Z,32.6
2017-09-03T11:26:50.532Z,32.6
2017-09-03T11:27:55.098Z,32.6
2017-09-03T11:28:53.955Z,32.6
2017-09-03T11:29:54.036Z,32.6
2017-09-03T11:30:52.874Z,32.6
2017-09-03T11:31:54.405Z,32.6
2017-09-03T11:32:51.051Z,32.6
2017-09-03T11:33:52.968Z,32.6
2017-09-03T11:34:53.063Z,32.6
2017-09-03T11:35:50.940Z,32.6
2017-09-03T11:36:54.503Z,32.6
2017-09-03T11:37:53.223Z,32.6
2017-09-03T11:38:51.070Z,32.6
2017-09-03T11:39:51.324Z,32.6
2017-09-03T11:40:54.739Z,32.6
2017-09-03T11:41:51.247Z,32.6
2017-09-03T11:42:53.444Z,32.6
2017-09-03T11:43:53.798Z,32.6
2017-09-03T11:44:53.563Z,32.6
2017-09-03T11:45:55.081Z,32.6
2017-09-03T11:46:53.476Z,32.6
2017-09-03T11:47:51.612Z,32.6
2017-09-03T11:48:54.945Z,32.6
2017-09-03T11:49:54.082Z,32.6
2017-09-03T11:50:51.758Z,32.6
2017-09-03T11:51:52.011Z,32.6
2017-09-03T11:52:52.112Z,32.6
2017-09-03T11:53:53.892Z,32.6
2017-09-03T11:54:52.003Z,32.6
2017-09-03T11:55:52.410Z,32.6
2017-09-03T11:56:52.113Z,32.6
2017-09-03T11:57:52.194Z,32.6
2017-09-03T11:58:52.489Z,32.6
2017-09-03T11:59:55.858Z,32.6
2017-09-03T12:00:54.193Z,32.6
2017-09-03T12:01:55.951Z,32.6
2017-09-03T12:02:52.444Z,32.6
2017-09-03T12:03:52.728Z,32.6
2017-09-03T12:04:52.744Z,32.6
2017-09-03T12:05:52.794Z,32.6
2017-09-03T12:06:52.590Z,32.6
2017-09-03T12:07:53.074Z,32.6
2017-09-03T12:08:52.798Z,32.6
2017-09-03T12:09:56.195Z,32.6
2017-09-03T12:10:54.645Z,32.6
2017-09-03T12:11:52.833Z,32.6
2017-09-03T12:12:54.793Z,32.6
2017-09-03T12:13:53.231Z,32.6
2017-09-03T12:14:55.088Z,32.6
2017-09-03T12:15:53.278Z,32.6
2017-09-03T12:16:53.309Z,32.6
2017-09-03T12:17:56.429Z,32.6
2017-09-03T12:18:53.369Z,32.6
2017-09-03T12:19:55.621Z,32.6
2017-09-03T12:20:53.462Z,32.6
2017-09-03T12:21:56.838Z,32.6
2017-09-03T12:22:56.909Z,32.6
2017-09-03T12:23:53.462Z,32.6
2017-09-03T12:24:53.550Z,32.6
2017-09-03T12:25:54.044Z,32.6
2017-09-03T12:26:53.855Z,32.6
2017-09-03T12:27:55.634Z,32.6
2017-09-03T12:28:55.723Z,32.6
2017-09-03T12:29:54.007Z,32.6
2017-09-03T12:30:55.949Z,32.6
2017-09-03T12:31:54.140Z,32.6
2017-09-03T12:32:54.142Z,32.6
2017-09-03T12:33:57.506Z,32.6
2017-09-03T12:34:56.123Z,32.6
2017-09-03T12:35:56.211Z,32.6
2017-09-03T12:36:56.227Z,32.6
2017-09-03T12:37:54.657Z,32.7
2017-09-03T12:38:54.419Z,32.6
2017-09-03T12:39:56.113Z,32.7
2017-09-03T12:40:56.140Z,32.6
2017-09-03T12:41:57.619Z,32.6
2017-09-03T12:42:54.496Z,32.6
2017-09-03T12:43:54.560Z,32.6
2017-09-03T12:44:54.331Z,32.6
2017-09-03T12:45:56.285Z,32.6
2017-09-03T12:46:57.736Z,32.6
2017-09-03T12:47:54.668Z,32.6
2017-09-03T12:48:54.723Z,32.6
2017-09-03T12:49:56.951Z,32.6
2017-09-03T12:50:54.605Z,32.6
2017-09-03T12:51:54.656Z,32.6
2017-09-03T12:52:54.663Z,32.6
2017-09-03T12:53:58.251Z,32.6
2017-09-03T12:54:58.096Z,32.6
2017-09-03T12:55:58.646Z,32.6
2017-09-03T12:56:54.959Z,32.6
2017-09-03T12:57:58.529Z,32.6
2017-09-03T12:58:55.301Z,32.6
2017-09-03T12:59:55.361Z,32.6
2017-09-03T13:00:55.201Z,32.6
2017-09-03T13:01:57.450Z,32.6
2017-09-03T13:02:58.887Z,32.6
2017-09-03T13:03:57.588Z,32.6
2017-09-03T13:04:57.417Z,32.6
2017-09-03T13:05:55.725Z,32.6
2017-09-03T13:06:55.587Z,32.6
2017-09-03T13:07:57.972Z,32.6
2017-09-03T13:08:57.777Z,32.6
2017-09-03T13:09:55.651Z,32.6
2017-09-03T13:10:55.815Z,32.6
2017-09-03T13:11:55.804Z,32.6
2017-09-03T13:12:56.021Z,32.6
2017-09-03T13:13:56.368Z,32.6
2017-09-03T13:14:59.301Z,32.6
2017-09-03T13:15:55.992Z,32.6
2017-09-03T13:16:56.295Z,32.6
2017-09-03T13:17:58.060Z,32.6
2017-09-03T13:18:58.333Z,32.6
2017-09-03T13:20:00.553Z,32.6
2017-09-03T13:20:56.310Z,32.6